Monday, October 16, 2017, 6:05 PM EDT
Back to Local

KCKB, Harrison/marion Regional

Location: Bridgeport, WV, United States Lat: 39.3
Local Time: 6:05 PM EDT (22:05 GMT) Lon: -80.217
Time Zone: US/Eastern Elev: 1204 ft

Show me the last for .
Show Decoded

2017-10-16 17:53 METAR KCKB 162153Z 00000KT 10SM BKN046 BKN055 BKN070 13/05 A3023 RMK AO2 SLP230
                 T01330050 =
2017-10-16 16:53 METAR KCKB 162053Z 05004KT 10SM FEW042 12/07 A3023 RMK AO2 SLP231 60003
                 T01170067 52001 =
2017-10-16 15:53 METAR KCKB 161953Z 03003KT 10SM FEW055 SCT070 12/07 A3023 RMK AO2 WSHFT 1906
                 RAB10E42 SLP232 P0001 T01170067 =
2017-10-16 15:26 METAR KCKB 161926Z 02006KT 9SM -RA FEW027 BKN036 BKN048 10/07 A3023 RMK AO2
                 WSHFT 1906 RAB10 P0001 T01000072 =
2017-10-16 14:53 METAR KCKB 161853Z 33006KT 10SM FEW060 BKN075 13/07 A3022 RMK AO2 RAB06E39
                 SLP229 P0002 T01330072 =
2017-10-16 13:53 METAR KCKB 161753Z 31007KT 10SM SCT060 13/06 A3022 RMK AO2 RAB1658E17 SLP229
                 P0000 60001 T01330061 10133 20100 50005 =
2017-10-16 13:00 METAR KCKB 161700Z 34006KT 10SM -RA FEW020 OVC044 11/07 A3024 RMK AO2 RAB1658
                 P0000 T01110067 =
2017-10-16 12:53 METAR KCKB 161653Z 34006KT 10SM BKN024 BKN030 OVC040 11/07 A3024 RMK AO2
                 RAE18B34E53 SLP236 P0000 T01110072 =
2017-10-16 11:53 METAR KCKB 161553Z 01008KT 6SM -RA BKN024 BKN030 OVC040 10/07 A3024 RMK AO2
                 RAB30 SLP234 P0001 T01000067 =
2017-10-16 10:53 METAR KCKB 161453Z 35006KT 10SM SCT023 SCT029 OVC055 12/06 A3021 RMK AO2 SLP224
                 T01220061 51018 =
2017-10-16 09:53 METAR KCKB 161353Z 33006KT 10SM FEW024 OVC050 11/06 A3020 RMK AO2 SLP222
                 T01110056 =
2017-10-16 08:53 METAR KCKB 161253Z 33007KT 10SM OVC055 11/06 A3019 RMK AO2 SLP215 T01110056 =
2017-10-16 07:53 METAR KCKB 161153Z 31008KT 10SM OVC050 11/06 A3016 RMK AO2 SLP203 70017
                 T01110056 10133 20111 53016 =
2017-10-16 06:53 METAR KCKB 161053Z 31005KT 10SM FEW019 OVC049 12/07 A3014 RMK AO2 SLP196
                 T01170072 $ =
2017-10-16 05:53 METAR KCKB 160953Z AUTO 28008KT 10SM OVC050 12/08 A3012 RMK AO2 SLP189 T01170078
                 $ =
2017-10-16 04:53 METAR KCKB 160853Z AUTO 29006KT 10SM OVC050 12/08 A3011 RMK AO2 SLP184 T01220078
                 53004 $ =
2017-10-16 03:53 METAR KCKB 160753Z AUTO 28007KT 10SM FEW027 OVC050 12/08 A3010 RMK AO2 SLP180
                 T01220083 $ =
2017-10-16 02:53 METAR KCKB 160653Z AUTO 29007KT 10SM FEW021 FEW026 OVC049 13/08 A3010 RMK AO2
                 SLP180 T01280083 $ =
2017-10-16 01:53 METAR KCKB 160553Z AUTO 29006KT 10SM SCT024 BKN030 OVC040 13/09 A3010 RMK AO2
                 SLP179 60017 T01330094 10217 20133 51018 $ =
2017-10-16 00:53 METAR KCKB 160453Z AUTO 28008KT 10SM FEW028 OVC036 14/10 A3008 RMK AO2 SLP174
                 T01390100 402720139 $ =
2017-10-16 00:35 METAR KCKB 160435Z AUTO 26004KT 10SM FEW026 BKN034 OVC041 14/10 A3008 RMK AO2
                 T01390100 $ =
2017-10-16 00:27 METAR KCKB 160427Z AUTO 26007KT 10SM BKN029 OVC039 14/10 A3008 RMK AO2 T01390100
                 $ =
2017-10-16 00:13 METAR KCKB 160413Z AUTO 27004KT 10SM BKN030 OVC037 14/11 A3008 RMK AO2 T01390106
                 $ =
2017-10-16 00:03 METAR KCKB 160403Z AUTO 28004KT 10SM BKN028 OVC040 14/11 A3007 RMK AO2 T01440106
                 $ =
2017-10-15 23:53 METAR KCKB 160353Z AUTO 29006KT 10SM SCT028 BKN040 OVC070 14/10 A3007 RMK AO2
                 RAE10B28E42 SLP170 P0000 T01440100 $ =
2017-10-15 22:53 METAR KCKB 160253Z 32009KT 10SM -RA BKN036 OVC060 14/11 A3004 RMK AO2 SLP160
                 P0001 60017 T01440106 51043 $ =
2017-10-15 22:43 METAR KCKB 160243Z 32010KT 10SM -RA SCT025 OVC034 15/11 A3003 RMK AO2 P0001
                 T01500106 $ =
2017-10-15 21:53 METAR KCKB 160153Z 30008G19KT 10SM -RA BKN020 OVC027 16/13 A3000 RMK AO2
                 RAE12B44 SLP149 P0000 T01560128 $ =
2017-10-15 21:29 METAR KCKB 160129Z 28005KT 10SM BKN027 OVC047 16/13 A2999 RMK AO2 RAE12 P0000
                 T01610133 $ =
2017-10-15 20:53 METAR KCKB 160053Z 28006KT 7SM -RA SCT014 BKN040 OVC050 16/14 A2997 RMK AO2 PK
                 WND 32030/0000 WSHFT 2344 RAB2355 SLP136 P0016 T01610139 $ =
2017-10-15 20:29 METAR KCKB 160029Z 32011G21KT 3SM +RA FEW012 SCT023 OVC033 17/14 A2995 RMK AO2
                 PK WND 32030/0000 WSHFT 2344 RAB2355 P0015 T01670139 $ =
2017-10-15 20:17 METAR KCKB 160017Z 31022G28KT 2 1/2SM RA FEW013 BKN022 OVC042 18/14 A2994 RMK
                 AO2 PK WND 32030/0000 WSHFT 2344 RAB2355 P0011 T01780139 $ =
2017-10-15 20:06 METAR KCKB 160006Z 31015G30KT 2 1/2SM +RA BR SCT018 BKN033 OVC055 18/16 A2993
                 RMK AO2 PK WND 32030/0000 WSHFT 2344 RAB2355 P0006 T01830161 $ =
2017-10-15 20:04 METAR KCKB 160004Z 31013G30KT 3SM +RA FEW018 BKN038 OVC055 19/16 A2993 RMK AO2
                 PK WND 32030/0000 WSHFT 2344 RAB2355 PRESRR P0004 T01890161 $ =
2017-10-15 19:53 METAR KCKB 152353Z 31021G37KT 9SM FEW021 BKN055 OVC120 22/16 A2991 RMK AO2 PK
                 WND 29037/2351 PRESRR SLP115 T02220161 10272 20222 53003 $ =
2017-10-15 18:53 METAR KCKB 152253Z 22009KT 10SM SCT042 BKN048 24/16 A2988 RMK AO2 SLP104
                 T02390161 $ =

Support USWX by starting your Amazon purchase here.